createdAt,value
2023-01-28T00:01:14.253Z,54.10
2023-01-28T00:03:43.744Z,59.20
2023-01-28T00:06:15.120Z,54.00
2023-01-28T00:08:44.289Z,53.65
2023-01-28T00:11:14.683Z,51.15
2023-01-28T00:13:43.377Z,52.42
2023-01-28T00:16:13.809Z,55.72
2023-01-28T00:18:42.871Z,53.20
2023-01-28T00:21:13.173Z,54.90
2023-01-28T00:23:43.159Z,55.20
2023-01-28T00:26:13.589Z,50.88
2023-01-28T00:28:44.900Z,50.72
2023-01-28T00:31:18.360Z,40.90
2023-01-28T00:33:48.711Z,51.65
2023-01-28T00:38:51.409Z,52.20
2023-01-28T00:41:22.700Z,53.42
2023-01-28T00:43:53.648Z,54.72
2023-01-28T00:46:25.438Z,53.95
2023-01-28T00:48:54.974Z,51.00
2023-01-28T00:51:24.109Z,55.40
2023-01-28T00:53:54.085Z,51.22
2023-01-28T00:56:23.128Z,49.78
2023-01-28T00:58:52.352Z,55.45
2023-01-28T01:01:25.625Z,38.00
2023-01-28T01:04:02.752Z,52.17
2023-01-28T01:06:35.434Z,53.05
2023-01-28T01:09:08.339Z,51.42
2023-01-28T01:11:37.974Z,54.80
2023-01-28T01:14:07.301Z,51.20
2023-01-28T01:16:38.910Z,53.25
2023-01-28T01:19:09.560Z,49.58
2023-01-28T01:21:38.684Z,49.88
2023-01-28T01:24:08.374Z,50.08
2023-01-28T01:26:37.476Z,49.88
2023-01-28T01:29:06.535Z,54.88
2023-01-28T01:31:37.286Z,46.67
2023-01-28T01:34:06.364Z,49.55
2023-01-28T01:36:36.037Z,49.22
2023-01-28T01:39:05.166Z,53.45
2023-01-28T01:41:34.673Z,48.17
2023-01-28T01:44:05.043Z,52.85
2023-01-28T01:46:38.100Z,46.53
2023-01-28T01:49:15.804Z,48.83
2023-01-28T01:51:45.467Z,53.08
2023-01-28T01:54:15.096Z,49.28
2023-01-28T01:56:45.333Z,39.78
2023-01-28T02:01:45.825Z,57.35
2023-01-28T02:04:18.881Z,57.55
2023-01-28T02:06:48.387Z,52.08
2023-01-28T02:09:26.214Z,55.00
2023-01-28T02:11:57.944Z,53.28
2023-01-28T02:14:31.409Z,51.25
2023-01-28T02:17:02.952Z,56.05
2023-01-28T02:19:37.666Z,54.00
2023-01-28T02:22:19.609Z,57.05
2023-01-28T02:25:27.297Z,60.42
2023-01-28T02:28:16.849Z,55.65
2023-01-28T02:30:52.332Z,48.72
2023-01-28T02:33:31.670Z,60.40
2023-01-28T02:36:07.293Z,52.88
2023-01-28T02:38:40.179Z,51.78
2023-01-28T02:41:12.955Z,54.65
2023-01-28T02:43:44.956Z,56.08
2023-01-28T02:46:37.120Z,52.95
2023-01-28T02:49:08.913Z,48.17
2023-01-28T02:52:00.238Z,46.83
2023-01-28T02:54:38.807Z,49.72
2023-01-28T02:57:15.291Z,46.40
2023-01-28T02:59:51.170Z,53.83
2023-01-28T03:02:24.542Z,50.50
2023-01-28T03:04:56.077Z,49.90
2023-01-28T03:07:25.788Z,50.92
2023-01-28T03:09:58.967Z,45.67
2023-01-28T03:12:47.344Z,46.25
2023-01-28T03:15:37.301Z,48.92
2023-01-28T03:18:27.444Z,43.60
2023-01-28T03:21:18.448Z,46.08
2023-01-28T03:24:09.083Z,44.60
2023-01-28T03:27:02.010Z,46.78
2023-01-28T03:29:50.698Z,42.47
2023-01-28T03:35:28.163Z,41.17
2023-01-28T03:38:00.149Z,38.72
2023-01-28T03:40:30.516Z,40.70
2023-01-28T03:43:00.940Z,40.95
2023-01-28T03:45:37.469Z,38.58
2023-01-28T03:48:08.975Z,39.50
2023-01-28T03:50:38.164Z,39.17
2023-01-28T03:53:16.405Z,39.78
2023-01-28T03:55:54.529Z,38.28
2023-01-28T03:58:27.368Z,48.03
2023-01-28T04:00:56.858Z,44.40
2023-01-28T04:03:27.401Z,41.38
2023-01-28T04:06:01.651Z,37.63
2023-01-28T04:08:53.196Z,38.42
2023-01-28T04:11:48.630Z,36.95
2023-01-28T04:14:24.257Z,35.00
2023-01-28T04:16:56.892Z,36.00
2023-01-28T04:19:31.207Z,36.55
2023-01-28T04:22:00.438Z,36.05
2023-01-28T04:24:31.737Z,35.03
2023-01-28T04:27:00.979Z,38.10
2023-01-28T04:29:30.076Z,32.95
2023-01-28T04:32:04.062Z,32.78
2023-01-28T04:34:47.588Z,33.15
2023-01-28T04:37:48.944Z,36.58
2023-01-28T04:40:50.354Z,32.15
2023-01-28T04:43:28.169Z,34.80
2023-01-28T04:46:35.924Z,33.00
2023-01-28T04:49:15.463Z,34.50
2023-01-28T04:52:06.620Z,32.38
2023-01-28T04:54:56.004Z,31.63
2023-01-28T04:57:25.853Z,31.20
2023-01-28T04:59:55.034Z,32.72
2023-01-28T05:02:24.146Z,34.63
2023-01-28T05:04:54.353Z,36.42
2023-01-28T05:07:52.734Z,34.05
2023-01-28T05:10:22.703Z,35.17
2023-01-28T05:12:51.793Z,23.02
2023-01-28T05:15:21.969Z,37.70
2023-01-28T05:17:56.700Z,31.27
2023-01-28T05:20:26.409Z,34.97
2023-01-28T05:22:59.418Z,33.28
2023-01-28T05:25:38.257Z,26.42
2023-01-28T05:28:07.580Z,32.67
2023-01-28T05:30:36.720Z,25.98
2023-01-28T05:33:05.896Z,30.65
2023-01-28T05:35:36.518Z,33.47
2023-01-28T05:38:07.178Z,35.38
2023-01-28T05:43:05.122Z,30.20
2023-01-28T05:45:47.789Z,36.63
2023-01-28T05:48:25.458Z,31.42
2023-01-28T05:51:12.992Z,25.60
2023-01-28T05:53:48.436Z,31.00
2023-01-28T05:56:18.203Z,31.45
2023-01-28T05:58:47.056Z,31.05
2023-01-28T06:01:16.156Z,34.80
2023-01-28T06:03:51.854Z,34.95
2023-01-28T06:06:21.112Z,34.10
2023-01-28T06:08:53.072Z,32.67
2023-01-28T06:11:28.183Z,35.35
2023-01-28T06:14:00.883Z,34.50
2023-01-28T06:16:53.324Z,35.13
2023-01-28T06:19:28.647Z,29.75
2023-01-28T06:21:57.760Z,32.83
2023-01-28T06:24:28.235Z,32.35
2023-01-28T06:26:57.408Z,34.17
2023-01-28T06:29:26.569Z,35.88
2023-01-28T06:31:55.495Z,33.75
2023-01-28T06:34:24.668Z,28.13
2023-01-28T06:36:54.430Z,38.97
2023-01-28T06:39:23.604Z,36.90
2023-01-28T06:41:54.525Z,38.53
2023-01-28T06:44:23.835Z,33.60
2023-01-28T06:46:52.730Z,40.42
2023-01-28T06:49:22.171Z,33.80
2023-01-28T06:51:51.958Z,35.03
2023-01-28T06:54:21.093Z,38.00
2023-01-28T06:56:50.173Z,32.42
2023-01-28T06:59:20.854Z,30.13
2023-01-28T07:04:18.748Z,39.55
2023-01-28T07:06:47.785Z,32.92
2023-01-28T07:09:16.932Z,39.55
2023-01-28T07:11:46.793Z,37.03
2023-01-28T07:14:15.904Z,46.30
2023-01-28T07:16:46.004Z,39.45
2023-01-28T07:19:15.379Z,39.42
2023-01-28T07:21:44.547Z,36.97
2023-01-28T07:24:13.806Z,39.38
2023-01-28T07:26:43.048Z,41.20
2023-01-28T07:29:12.231Z,42.28
2023-01-28T07:31:41.068Z,37.28
2023-01-28T07:36:41.396Z,41.10
2023-01-28T07:39:10.494Z,41.67
2023-01-28T07:41:39.570Z,32.90
2023-01-28T07:44:09.464Z,31.92
2023-01-28T07:46:38.130Z,33.28
2023-01-28T07:49:07.142Z,32.50
2023-01-28T07:51:37.652Z,30.75
2023-01-28T07:54:06.944Z,28.35
2023-01-28T07:56:36.004Z,28.17
2023-01-28T07:59:05.149Z,33.00
2023-01-28T08:01:34.137Z,33.10
2023-01-28T08:04:04.577Z,33.38
2023-01-28T08:06:38.116Z,26.03
2023-01-28T08:09:09.460Z,27.30
2023-01-28T08:11:40.400Z,31.05
2023-01-28T08:14:09.596Z,26.77
2023-01-28T08:16:38.338Z,27.15
2023-01-28T08:19:07.640Z,34.80
2023-01-28T08:21:37.008Z,29.48
2023-01-28T08:24:06.938Z,33.72
2023-01-28T08:26:37.440Z,32.38
2023-01-28T08:29:06.645Z,33.30
2023-01-28T08:31:35.404Z,28.67
2023-01-28T08:34:04.568Z,32.70
2023-01-28T08:36:33.705Z,30.00
2023-01-28T08:39:02.874Z,30.23
2023-01-28T08:41:32.238Z,28.88
2023-01-28T08:44:02.763Z,26.98
2023-01-28T08:46:31.496Z,27.13
2023-01-28T08:49:00.649Z,25.02
2023-01-28T08:51:29.891Z,30.70
2023-01-28T08:53:59.058Z,30.48
2023-01-28T08:56:28.161Z,22.70
2023-01-28T08:58:56.844Z,24.52
2023-01-28T09:01:29.584Z,24.67
2023-01-28T09:03:58.865Z,27.30
2023-01-28T09:06:27.801Z,23.98
2023-01-28T09:08:58.485Z,25.55
2023-01-28T09:11:27.778Z,25.83
2023-01-28T09:13:58.361Z,26.92
2023-01-28T09:16:29.078Z,24.92
2023-01-28T09:18:58.830Z,22.95
2023-01-28T09:21:28.071Z,22.90
2023-01-28T09:23:58.581Z,26.15
2023-01-28T09:26:27.749Z,25.45
2023-01-28T09:28:56.474Z,24.45
2023-01-28T09:31:26.127Z,24.85
2023-01-28T09:33:57.418Z,27.63
2023-01-28T09:36:26.582Z,27.73
2023-01-28T09:38:55.592Z,26.52
2023-01-28T09:41:29.735Z,29.80
2023-01-28T09:44:12.230Z,29.23
2023-01-28T09:46:43.004Z,27.10
2023-01-28T09:49:20.989Z,24.42
2023-01-28T09:51:52.898Z,33.47
2023-01-28T09:54:31.662Z,30.20
2023-01-28T09:57:05.733Z,24.00
2023-01-28T09:59:37.391Z,28.17
2023-01-28T10:02:22.125Z,28.00
2023-01-28T10:05:00.617Z,24.92
2023-01-28T10:07:36.677Z,25.60
2023-01-28T10:10:12.726Z,25.02
2023-01-28T10:12:56.731Z,24.05
2023-01-28T10:15:51.298Z,27.73
2023-01-28T10:18:27.579Z,30.73
2023-01-28T10:21:05.333Z,27.35
2023-01-28T10:23:41.471Z,27.50
2023-01-28T10:26:18.777Z,27.83
2023-01-28T10:28:49.601Z,29.75
2023-01-28T10:31:18.671Z,27.50
2023-01-28T10:33:47.665Z,23.25
2023-01-28T10:36:18.989Z,25.67
2023-01-28T10:38:48.139Z,20.73
2023-01-28T10:41:22.209Z,23.92
2023-01-28T10:43:51.476Z,22.42
2023-01-28T10:46:22.648Z,24.88
2023-01-28T10:48:58.233Z,23.00
2023-01-28T10:51:36.607Z,23.90
2023-01-28T10:54:16.348Z,28.40
2023-01-28T10:56:45.820Z,28.83
2023-01-28T10:59:22.780Z,27.25
2023-01-28T11:01:53.969Z,21.67
2023-01-28T11:04:26.403Z,26.50
2023-01-28T11:07:02.532Z,23.48
2023-01-28T11:09:33.075Z,24.83
2023-01-28T11:12:13.279Z,21.33
2023-01-28T11:14:51.688Z,23.63
2023-01-28T11:17:23.121Z,21.35
2023-01-28T11:19:53.710Z,23.30
2023-01-28T11:22:33.195Z,22.08
2023-01-28T11:25:03.308Z,13.93
2023-01-28T11:27:33.457Z,24.38
2023-01-28T11:30:04.416Z,23.95
2023-01-28T11:32:33.532Z,28.50
2023-01-28T11:35:02.571Z,25.48
2023-01-28T11:37:32.655Z,29.02
2023-01-28T11:40:11.870Z,27.17
2023-01-28T11:42:41.096Z,29.75
2023-01-28T11:45:16.716Z,26.27
2023-01-28T11:47:57.887Z,24.88
2023-01-28T11:50:35.428Z,27.02
2023-01-28T11:53:17.184Z,24.88
2023-01-28T11:55:54.781Z,21.33
2023-01-28T11:58:27.124Z,24.25
2023-01-28T12:01:04.111Z,23.42
2023-01-28T12:03:44.010Z,25.02
2023-01-28T12:06:30.105Z,31.25
2023-01-28T12:09:09.881Z,26.38
2023-01-28T12:12:04.942Z,23.50
2023-01-28T12:14:38.903Z,24.45
2023-01-28T12:17:17.706Z,27.35
2023-01-28T12:19:58.095Z,26.65
2023-01-28T12:22:44.178Z,24.30
2023-01-28T12:25:23.938Z,23.60
2023-01-28T12:28:01.579Z,23.38
2023-01-28T12:30:39.296Z,27.52
2023-01-28T12:33:30.199Z,24.85
2023-01-28T12:36:07.382Z,27.42
2023-01-28T12:38:46.057Z,26.58
2023-01-28T12:41:18.335Z,27.35
2023-01-28T12:43:55.545Z,27.63
2023-01-28T12:46:30.928Z,27.75
2023-01-28T12:49:03.674Z,33.35
2023-01-28T12:51:37.629Z,24.30
2023-01-28T12:54:11.897Z,27.63
2023-01-28T12:56:45.432Z,26.13
2023-01-28T12:59:16.965Z,24.60
2023-01-28T13:01:51.559Z,28.45
2023-01-28T13:04:33.275Z,27.38
2023-01-28T13:07:04.451Z,23.83
2023-01-28T13:09:36.281Z,31.88
2023-01-28T13:12:07.641Z,26.13
2023-01-28T13:14:37.217Z,25.92
2023-01-28T13:17:12.768Z,28.55
2023-01-28T13:19:44.080Z,32.33
2023-01-28T13:22:20.292Z,27.92
2023-01-28T13:24:49.373Z,29.48
2023-01-28T13:27:25.800Z,19.77
2023-01-28T13:30:08.001Z,16.55
2023-01-28T13:32:37.886Z,23.23
2023-01-28T13:35:08.876Z,22.58
2023-01-28T13:37:40.499Z,23.80
2023-01-28T13:40:24.975Z,27.30
2023-01-28T13:43:04.527Z,26.85
2023-01-28T13:45:34.242Z,28.92
2023-01-28T13:48:15.239Z,31.55
2023-01-28T13:50:45.234Z,28.50
2023-01-28T13:53:30.410Z,28.20
2023-01-28T13:56:00.704Z,34.97
2023-01-28T13:59:08.381Z,28.70
2023-01-28T14:02:13.080Z,31.67
2023-01-28T14:05:26.485Z,32.53
2023-01-28T14:08:52.286Z,35.47
2023-01-28T14:11:35.606Z,35.17
2023-01-28T14:14:29.076Z,33.60
2023-01-28T14:17:00.217Z,28.25
2023-01-28T14:19:32.327Z,32.30
2023-01-28T14:22:07.739Z,31.63
2023-01-28T14:24:38.857Z,29.38
2023-01-28T14:27:12.562Z,27.40
2023-01-28T14:29:57.368Z,25.73
2023-01-28T14:32:29.314Z,26.77
2023-01-28T14:35:00.305Z,27.25
2023-01-28T14:37:32.250Z,26.73
2023-01-28T14:40:02.825Z,16.25
2023-01-28T14:42:33.469Z,18.30
2023-01-28T14:45:27.468Z,18.20
2023-01-28T14:48:15.315Z,20.33
2023-01-28T14:50:57.567Z,21.92
2023-01-28T14:54:01.995Z,22.02
2023-01-28T14:56:40.853Z,14.32
2023-01-28T14:59:17.075Z,10.45
2023-01-28T15:01:48.511Z,8.95
2023-01-28T15:04:25.493Z,8.93
2023-01-28T15:06:54.949Z,12.18
2023-01-28T15:09:24.795Z,11.90
2023-01-28T15:11:57.344Z,14.98
2023-01-28T15:14:29.197Z,16.90
2023-01-28T15:16:59.775Z,16.98
2023-01-28T15:19:30.840Z,22.77
2023-01-28T15:22:01.619Z,24.65
2023-01-28T15:24:30.842Z,26.95
2023-01-28T15:26:59.890Z,21.75
2023-01-28T15:29:35.173Z,28.85
2023-01-28T15:32:07.258Z,24.58
2023-01-28T15:34:38.212Z,24.60
2023-01-28T15:37:07.340Z,23.92
2023-01-28T15:39:36.577Z,23.15
2023-01-28T15:42:07.911Z,12.18
2023-01-28T15:44:39.280Z,8.75
2023-01-28T15:47:18.183Z,9.48
2023-01-28T15:49:48.913Z,6.05
2023-01-28T15:52:18.135Z,6.38
2023-01-28T15:54:50.409Z,6.15
2023-01-28T15:57:21.049Z,7.07
2023-01-28T15:59:52.144Z,5.55
2023-01-28T16:02:24.389Z,7.68
2023-01-28T16:05:00.527Z,10.30
2023-01-28T16:07:31.155Z,12.75
2023-01-28T16:10:02.731Z,19.33
2023-01-28T16:12:31.809Z,22.50
2023-01-28T16:15:02.713Z,22.25
2023-01-28T16:17:37.522Z,25.55
2023-01-28T16:20:08.398Z,24.17
2023-01-28T16:22:38.523Z,17.35
2023-01-28T16:25:27.932Z,21.50
2023-01-28T16:27:58.065Z,23.95
2023-01-28T16:32:58.379Z,26.27
2023-01-28T16:35:42.525Z,24.98
2023-01-28T16:38:18.110Z,30.67
2023-01-28T16:40:48.158Z,25.30
2023-01-28T16:43:18.151Z,27.55
2023-01-28T16:45:47.769Z,26.33
2023-01-28T16:48:18.362Z,21.27
2023-01-28T16:50:47.633Z,23.88
2023-01-28T16:53:21.225Z,26.45
2023-01-28T16:55:51.842Z,26.00
2023-01-28T16:58:24.282Z,24.50
2023-01-28T17:00:53.440Z,26.30
2023-01-28T17:03:23.961Z,23.60
2023-01-28T17:05:53.107Z,24.05
2023-01-28T17:08:22.175Z,23.38
2023-01-28T17:10:53.964Z,28.02
2023-01-28T17:13:23.481Z,28.50
2023-01-28T17:15:52.938Z,25.33
2023-01-28T17:18:23.815Z,27.25
2023-01-28T17:20:52.862Z,22.33
2023-01-28T17:23:24.311Z,21.38
2023-01-28T17:25:52.971Z,25.13
2023-01-28T17:28:22.272Z,22.10
2023-01-28T17:30:51.528Z,28.30
2023-01-28T17:33:20.621Z,26.83
2023-01-28T17:35:51.200Z,23.55
2023-01-28T17:38:20.301Z,22.83
2023-01-28T17:40:49.188Z,25.33
2023-01-28T17:43:18.276Z,21.92
2023-01-28T17:45:47.454Z,19.63
2023-01-28T17:48:16.565Z,14.63
2023-01-28T17:50:45.727Z,10.35
2023-01-28T17:53:16.285Z,11.20
2023-01-28T17:58:13.835Z,10.52
2023-01-28T18:00:43.103Z,12.02
2023-01-28T18:03:12.550Z,12.55
2023-01-28T18:05:41.752Z,13.43
2023-01-28T18:08:11.011Z,12.88
2023-01-28T18:10:44.656Z,18.40
2023-01-28T18:13:14.027Z,17.17
2023-01-28T18:15:43.405Z,17.00
2023-01-28T18:18:13.013Z,12.43
2023-01-28T18:20:42.148Z,13.90
2023-01-28T18:23:11.306Z,13.35
2023-01-28T18:25:41.542Z,15.73
2023-01-28T18:28:11.070Z,17.35
2023-01-28T18:30:40.199Z,18.75
2023-01-28T18:33:09.431Z,18.98
2023-01-28T18:35:43.108Z,17.15
2023-01-28T18:38:12.574Z,15.23
2023-01-28T18:40:46.180Z,15.57
2023-01-28T18:43:15.907Z,17.63
2023-01-28T18:45:49.429Z,19.25
2023-01-28T18:48:18.969Z,13.57
2023-01-28T18:50:51.751Z,11.73
2023-01-28T18:53:20.984Z,9.85
2023-01-28T18:55:52.046Z,8.10
2023-01-28T18:58:21.411Z,8.23
2023-01-28T19:00:50.524Z,8.55
2023-01-28T19:03:19.804Z,7.47
2023-01-28T19:05:48.952Z,8.32
2023-01-28T19:08:18.605Z,9.15
2023-01-28T19:10:47.340Z,10.57
2023-01-28T19:13:18.099Z,9.52
2023-01-28T19:15:47.395Z,9.02
2023-01-28T19:18:16.625Z,10.40
2023-01-28T19:20:46.104Z,9.60
2023-01-28T19:23:15.510Z,7.05
2023-01-28T19:25:44.409Z,8.93
2023-01-28T19:28:13.592Z,8.45
2023-01-28T19:30:46.113Z,9.05
2023-01-28T19:33:15.316Z,11.57
2023-01-28T19:35:45.892Z,7.53
2023-01-28T19:38:15.107Z,10.10
2023-01-28T19:40:43.754Z,12.02
2023-01-28T19:43:13.002Z,12.52
2023-01-28T19:45:43.559Z,10.85
2023-01-28T19:48:12.755Z,9.60
2023-01-28T19:50:41.795Z,11.50
2023-01-28T19:53:10.813Z,11.73
2023-01-28T19:55:39.973Z,6.97
2023-01-28T19:58:09.291Z,14.68
2023-01-28T20:00:38.501Z,8.35
2023-01-28T20:03:09.564Z,8.80
2023-01-28T20:05:39.275Z,12.93
2023-01-28T20:08:08.487Z,9.73
2023-01-28T20:10:37.325Z,11.82
2023-01-28T20:13:07.456Z,8.95
2023-01-28T20:18:05.594Z,11.27
2023-01-28T20:20:36.285Z,8.18
2023-01-28T20:23:06.638Z,10.10
2023-01-28T20:28:04.550Z,15.38
2023-01-28T20:30:33.730Z,11.77
2023-01-28T20:33:02.861Z,9.27
2023-01-28T20:35:31.947Z,9.18
2023-01-28T20:38:04.272Z,8.15
2023-01-28T20:40:33.167Z,9.35
2023-01-28T20:43:02.362Z,9.17
2023-01-28T20:45:32.743Z,9.27
2023-01-28T20:50:30.826Z,14.02
2023-01-28T20:53:01.403Z,11.37
2023-01-28T20:55:30.533Z,8.90
2023-01-28T20:57:59.797Z,10.52
2023-01-28T21:00:28.906Z,12.05
2023-01-28T21:02:58.287Z,12.02
2023-01-28T21:05:27.335Z,10.43
2023-01-28T21:07:56.083Z,12.98
2023-01-28T21:10:26.707Z,12.18
2023-01-28T21:12:56.141Z,12.35
2023-01-28T21:15:25.209Z,11.73
2023-01-28T21:17:54.370Z,11.45
2023-01-28T21:20:23.440Z,12.57
2023-01-28T21:22:52.515Z,14.57
2023-01-28T21:25:21.885Z,12.20
2023-01-28T21:27:52.384Z,11.57
2023-01-28T21:30:21.755Z,12.60
2023-01-28T21:32:50.807Z,12.57
2023-01-28T21:35:20.997Z,13.60
2023-01-28T21:37:49.736Z,11.25
2023-01-28T21:40:19.433Z,13.25
2023-01-28T21:42:48.695Z,11.52
2023-01-28T21:45:19.291Z,11.82
2023-01-28T21:47:48.562Z,13.02
2023-01-28T21:50:18.267Z,12.35
2023-01-28T21:52:49.456Z,13.32
2023-01-28T21:55:19.168Z,13.50
2023-01-28T21:57:48.387Z,9.90
2023-01-28T22:00:19.158Z,10.63
2023-01-28T22:02:48.486Z,10.98
2023-01-28T22:05:17.827Z,12.55
2023-01-28T22:07:46.478Z,12.52
2023-01-28T22:10:16.322Z,12.65
2023-01-28T22:12:45.721Z,12.68
2023-01-28T22:15:15.029Z,16.45
2023-01-28T22:17:45.711Z,15.65
2023-01-28T22:20:15.349Z,13.48
2023-01-28T22:22:44.246Z,9.05
2023-01-28T22:25:13.381Z,12.88
2023-01-28T22:27:42.446Z,13.15
2023-01-28T22:30:12.899Z,12.63
2023-01-28T22:32:42.076Z,14.45
2023-01-28T22:35:12.712Z,12.90
2023-01-28T22:37:41.998Z,15.43
2023-01-28T22:40:12.215Z,12.07
2023-01-28T22:45:11.298Z,11.77
2023-01-28T22:47:40.390Z,13.52
2023-01-28T22:50:12.587Z,13.50
2023-01-28T22:52:41.540Z,11.90
2023-01-28T22:55:11.413Z,12.97
2023-01-28T22:57:40.512Z,13.95
2023-01-28T23:00:12.240Z,16.05
2023-01-28T23:02:41.719Z,15.75
2023-01-28T23:05:12.758Z,10.38
2023-01-28T23:07:41.462Z,12.52
2023-01-28T23:10:13.845Z,13.18
2023-01-28T23:12:42.973Z,16.00
2023-01-28T23:15:30.855Z,18.88
2023-01-28T23:18:17.934Z,16.90
2023-01-28T23:21:05.949Z,14.80
2023-01-28T23:23:52.233Z,12.25
2023-01-28T23:26:21.385Z,12.98
2023-01-28T23:28:50.058Z,12.57
2023-01-28T23:31:19.172Z,14.05
2023-01-28T23:33:48.252Z,15.77
2023-01-28T23:36:18.839Z,12.10
2023-01-28T23:38:47.850Z,19.35
2023-01-28T23:41:16.976Z,13.50
2023-01-28T23:43:46.528Z,14.77
2023-01-28T23:46:15.572Z,15.05
2023-01-28T23:48:44.700Z,15.45
2023-01-28T23:51:13.755Z,15.30
2023-01-28T23:53:44.261Z,15.85
2023-01-28T23:56:13.694Z,16.50
2023-01-28T23:58:44.072Z,14.68
